sensor_id;sensor_type;location;lat;lon;timestamp;P1;durP1;ratioP1;P2;durP2;ratioP2
6306;SDS011;3186;54.062;9.962;2023-02-21T00:02:13;5.20;;;2.60;;
6306;SDS011;3186;54.062;9.962;2023-02-21T00:04:57;12.40;;;3.33;;
6306;SDS011;3186;54.062;9.962;2023-02-21T00:07:41;14.67;;;3.90;;
6306;SDS011;3186;54.062;9.962;2023-02-21T00:10:26;11.43;;;3.40;;
6306;SDS011;3186;54.062;9.962;2023-02-21T00:13:10;9.80;;;3.67;;
6306;SDS011;3186;54.062;9.962;2023-02-21T00:15:55;12.80;;;3.90;;
6306;SDS011;3186;54.062;9.962;2023-02-21T00:18:39;6.10;;;3.43;;
6306;SDS011;3186;54.062;9.962;2023-02-21T00:21:26;16.13;;;4.23;;
6306;SDS011;3186;54.062;9.962;2023-02-21T00:24:12;10.87;;;4.03;;
6306;SDS011;3186;54.062;9.962;2023-02-21T00:26:58;16.90;;;4.40;;
6306;SDS011;3186;54.062;9.962;2023-02-21T00:29:42;10.90;;;4.17;;
6306;SDS011;3186;54.062;9.962;2023-02-21T00:32:26;15.83;;;5.00;;
6306;SDS011;3186;54.062;9.962;2023-02-21T00:35:11;10.30;;;3.63;;
6306;SDS011;3186;54.062;9.962;2023-02-21T00:37:55;19.17;;;4.67;;
6306;SDS011;3186;54.062;9.962;2023-02-21T00:40:39;13.00;;;4.90;;
6306;SDS011;3186;54.062;9.962;2023-02-21T00:43:27;16.67;;;4.63;;
6306;SDS011;3186;54.062;9.962;2023-02-21T00:46:13;10.37;;;4.07;;
6306;SDS011;3186;54.062;9.962;2023-02-21T00:48:57;17.40;;;4.57;;
6306;SDS011;3186;54.062;9.962;2023-02-21T00:51:41;16.53;;;3.97;;
6306;SDS011;3186;54.062;9.962;2023-02-21T00:54:26;11.97;;;3.97;;
6306;SDS011;3186;54.062;9.962;2023-02-21T00:57:10;14.40;;;3.87;;
6306;SDS011;3186;54.062;9.962;2023-02-21T00:59:54;9.53;;;3.73;;
6306;SDS011;3186;54.062;9.962;2023-02-21T01:02:38;11.93;;;3.47;;
6306;SDS011;3186;54.062;9.962;2023-02-21T01:05:22;10.47;;;3.20;;
6306;SDS011;3186;54.062;9.962;2023-02-21T01:08:07;11.00;;;3.07;;
6306;SDS011;3186;54.062;9.962;2023-02-21T01:10:51;9.60;;;3.10;;
6306;SDS011;3186;54.062;9.962;2023-02-21T01:13:35;11.50;;;3.47;;
6306;SDS011;3186;54.062;9.962;2023-02-21T01:16:19;11.93;;;2.97;;
6306;SDS011;3186;54.062;9.962;2023-02-21T01:19:04;11.03;;;3.33;;
6306;SDS011;3186;54.062;9.962;2023-02-21T01:21:49;12.30;;;3.27;;
6306;SDS011;3186;54.062;9.962;2023-02-21T01:24:33;21.87;;;4.00;;
6306;SDS011;3186;54.062;9.962;2023-02-21T01:27:17;9.23;;;2.70;;
6306;SDS011;3186;54.062;9.962;2023-02-21T01:30:02;7.17;;;2.13;;
6306;SDS011;3186;54.062;9.962;2023-02-21T01:32:47;7.50;;;2.10;;
6306;SDS011;3186;54.062;9.962;2023-02-21T01:35:31;10.50;;;2.00;;
6306;SDS011;3186;54.062;9.962;2023-02-21T01:38:16;9.53;;;1.70;;
6306;SDS011;3186;54.062;9.962;2023-02-21T01:41:00;10.23;;;2.30;;
6306;SDS011;3186;54.062;9.962;2023-02-21T01:43:56;10.13;;;1.77;;
6306;SDS011;3186;54.062;9.962;2023-02-21T01:46:46;6.33;;;1.43;;
6306;SDS011;3186;54.062;9.962;2023-02-21T01:49:30;6.43;;;1.97;;
6306;SDS011;3186;54.062;9.962;2023-02-21T01:52:16;11.20;;;1.87;;
6306;SDS011;3186;54.062;9.962;2023-02-21T01:55:00;5.43;;;1.53;;
6306;SDS011;3186;54.062;9.962;2023-02-21T01:57:47;9.57;;;1.87;;
6306;SDS011;3186;54.062;9.962;2023-02-21T02:00:32;6.73;;;1.90;;
6306;SDS011;3186;54.062;9.962;2023-02-21T02:03:19;4.97;;;1.30;;
6306;SDS011;3186;54.062;9.962;2023-02-21T02:06:07;6.13;;;1.80;;
6306;SDS011;3186;54.062;9.962;2023-02-21T02:08:55;7.60;;;1.37;;
6306;SDS011;3186;54.062;9.962;2023-02-21T02:20:39;6.27;;;1.83;;
6306;SDS011;3186;54.062;9.962;2023-02-21T02:28:41;11.33;;;2.60;;
6306;SDS011;3186;54.062;9.962;2023-02-21T02:44:56;11.67;;;2.00;;
6306;SDS011;3186;54.062;9.962;2023-02-21T02:47:42;9.67;;;2.17;;
6306;SDS011;3186;54.062;9.962;2023-02-21T02:50:10;12.43;;;2.40;;
6306;SDS011;3186;54.062;9.962;2023-02-21T02:52:37;8.00;;;2.33;;
6306;SDS011;3186;54.062;9.962;2023-02-21T02:58:00;13.53;;;3.10;;
6306;SDS011;3186;54.062;9.962;2023-02-21T03:00:27;16.53;;;3.20;;
6306;SDS011;3186;54.062;9.962;2023-02-21T03:08:18;18.03;;;2.93;;
6306;SDS011;3186;54.062;9.962;2023-02-21T03:16:16;14.07;;;3.20;;
6306;SDS011;3186;54.062;9.962;2023-02-21T03:19:02;14.73;;;2.87;;
6306;SDS011;3186;54.062;9.962;2023-02-21T03:21:37;25.67;;;4.47;;
6306;SDS011;3186;54.062;9.962;2023-02-21T03:24:07;15.20;;;3.10;;
6306;SDS011;3186;54.062;9.962;2023-02-21T03:26:36;10.40;;;2.17;;
6306;SDS011;3186;54.062;9.962;2023-02-21T03:29:35;17.67;;;2.70;;
6306;SDS011;3186;54.062;9.962;2023-02-21T03:32:07;20.43;;;3.60;;
6306;SDS011;3186;54.062;9.962;2023-02-21T03:34:46;22.47;;;4.10;;
6306;SDS011;3186;54.062;9.962;2023-02-21T03:37:47;16.73;;;3.13;;
6306;SDS011;3186;54.062;9.962;2023-02-21T03:40:10;20.27;;;3.70;;
6306;SDS011;3186;54.062;9.962;2023-02-21T03:42:45;12.67;;;3.27;;
6306;SDS011;3186;54.062;9.962;2023-02-21T03:45:13;18.53;;;3.63;;
6306;SDS011;3186;54.062;9.962;2023-02-21T03:47:40;25.83;;;4.47;;
6306;SDS011;3186;54.062;9.962;2023-02-21T03:50:06;23.67;;;4.83;;
6306;SDS011;3186;54.062;9.962;2023-02-21T03:52:35;15.53;;;3.47;;
6306;SDS011;3186;54.062;9.962;2023-02-21T03:55:01;21.40;;;3.87;;
6306;SDS011;3186;54.062;9.962;2023-02-21T03:57:28;20.07;;;4.03;;
6306;SDS011;3186;54.062;9.962;2023-02-21T03:59:54;18.03;;;3.63;;
6306;SDS011;3186;54.062;9.962;2023-02-21T04:02:21;20.90;;;4.40;;
6306;SDS011;3186;54.062;9.962;2023-02-21T04:04:47;12.17;;;3.07;;
6306;SDS011;3186;54.062;9.962;2023-02-21T04:07:16;21.77;;;4.40;;
6306;SDS011;3186;54.062;9.962;2023-02-21T04:09:43;20.23;;;4.87;;
6306;SDS011;3186;54.062;9.962;2023-02-21T04:12:14;19.57;;;4.37;;
6306;SDS011;3186;54.062;9.962;2023-02-21T04:14:40;20.60;;;3.90;;
6306;SDS011;3186;54.062;9.962;2023-02-21T04:17:07;19.43;;;3.87;;
6306;SDS011;3186;54.062;9.962;2023-02-21T04:19:32;22.50;;;4.23;;
6306;SDS011;3186;54.062;9.962;2023-02-21T04:22:00;23.73;;;3.73;;
6306;SDS011;3186;54.062;9.962;2023-02-21T04:24:27;20.63;;;4.40;;
6306;SDS011;3186;54.062;9.962;2023-02-21T04:26:53;22.57;;;4.80;;
6306;SDS011;3186;54.062;9.962;2023-02-21T04:29:20;15.33;;;3.87;;
6306;SDS011;3186;54.062;9.962;2023-02-21T04:31:46;21.33;;;3.83;;
6306;SDS011;3186;54.062;9.962;2023-02-21T04:34:15;24.40;;;3.60;;
6306;SDS011;3186;54.062;9.962;2023-02-21T04:36:42;19.77;;;3.60;;
6306;SDS011;3186;54.062;9.962;2023-02-21T04:39:08;23.53;;;4.53;;
6306;SDS011;3186;54.062;9.962;2023-02-21T04:41:35;22.50;;;4.33;;
6306;SDS011;3186;54.062;9.962;2023-02-21T04:44:01;23.00;;;5.20;;
6306;SDS011;3186;54.062;9.962;2023-02-21T04:46:30;19.47;;;4.63;;
6306;SDS011;3186;54.062;9.962;2023-02-21T04:48:56;17.30;;;4.03;;
6306;SDS011;3186;54.062;9.962;2023-02-21T04:51:23;28.37;;;4.70;;
6306;SDS011;3186;54.062;9.962;2023-02-21T04:53:49;19.70;;;4.23;;
6306;SDS011;3186;54.062;9.962;2023-02-21T04:56:17;18.43;;;4.00;;
6306;SDS011;3186;54.062;9.962;2023-02-21T04:58:45;22.03;;;4.47;;
6306;SDS011;3186;54.062;9.962;2023-02-21T05:01:11;30.93;;;5.57;;
6306;SDS011;3186;54.062;9.962;2023-02-21T05:03:38;31.27;;;6.43;;
6306;SDS011;3186;54.062;9.962;2023-02-21T05:06:04;24.77;;;5.03;;
6306;SDS011;3186;54.062;9.962;2023-02-21T05:08:30;23.07;;;4.77;;
6306;SDS011;3186;54.062;9.962;2023-02-21T05:10:55;22.30;;;4.63;;
6306;SDS011;3186;54.062;9.962;2023-02-21T05:13:21;22.80;;;4.13;;
6306;SDS011;3186;54.062;9.962;2023-02-21T05:15:48;32.43;;;5.17;;
6306;SDS011;3186;54.062;9.962;2023-02-21T05:18:14;20.30;;;4.57;;
6306;SDS011;3186;54.062;9.962;2023-02-21T05:20:50;31.83;;;5.47;;
6306;SDS011;3186;54.062;9.962;2023-02-21T05:23:17;30.40;;;5.40;;
6306;SDS011;3186;54.062;9.962;2023-02-21T05:25:58;33.23;;;5.17;;
6306;SDS011;3186;54.062;9.962;2023-02-21T05:28:28;30.17;;;5.50;;
6306;SDS011;3186;54.062;9.962;2023-02-21T05:30:54;21.70;;;4.27;;
6306;SDS011;3186;54.062;9.962;2023-02-21T05:33:20;24.37;;;4.40;;
6306;SDS011;3186;54.062;9.962;2023-02-21T05:35:46;25.93;;;5.23;;
6306;SDS011;3186;54.062;9.962;2023-02-21T05:38:13;22.20;;;4.37;;
6306;SDS011;3186;54.062;9.962;2023-02-21T05:40:40;24.90;;;5.50;;
6306;SDS011;3186;54.062;9.962;2023-02-21T05:43:06;28.73;;;6.10;;
6306;SDS011;3186;54.062;9.962;2023-02-21T05:45:32;29.87;;;5.23;;
6306;SDS011;3186;54.062;9.962;2023-02-21T05:47:58;19.33;;;4.03;;
6306;SDS011;3186;54.062;9.962;2023-02-21T05:50:26;25.53;;;4.97;;
6306;SDS011;3186;54.062;9.962;2023-02-21T05:52:53;23.70;;;4.80;;
6306;SDS011;3186;54.062;9.962;2023-02-21T05:55:20;22.67;;;3.83;;
6306;SDS011;3186;54.062;9.962;2023-02-21T05:57:45;24.57;;;4.50;;
6306;SDS011;3186;54.062;9.962;2023-02-21T06:00:15;21.53;;;4.27;;
6306;SDS011;3186;54.062;9.962;2023-02-21T06:02:43;26.77;;;4.20;;
6306;SDS011;3186;54.062;9.962;2023-02-21T06:05:08;27.77;;;5.20;;
6306;SDS011;3186;54.062;9.962;2023-02-21T06:07:35;18.73;;;4.83;;
6306;SDS011;3186;54.062;9.962;2023-02-21T06:10:01;24.47;;;4.67;;
6306;SDS011;3186;54.062;9.962;2023-02-21T06:12:27;37.73;;;5.23;;
6306;SDS011;3186;54.062;9.962;2023-02-21T06:14:53;26.10;;;4.20;;
6306;SDS011;3186;54.062;9.962;2023-02-21T06:17:19;32.40;;;4.70;;
6306;SDS011;3186;54.062;9.962;2023-02-21T06:19:45;15.70;;;3.83;;
6306;SDS011;3186;54.062;9.962;2023-02-21T06:22:11;25.63;;;5.20;;
6306;SDS011;3186;54.062;9.962;2023-02-21T06:24:36;29.30;;;5.27;;
6306;SDS011;3186;54.062;9.962;2023-02-21T06:27:02;33.00;;;5.33;;
6306;SDS011;3186;54.062;9.962;2023-02-21T06:29:28;32.77;;;5.47;;
6306;SDS011;3186;54.062;9.962;2023-02-21T06:31:55;33.87;;;5.50;;
6306;SDS011;3186;54.062;9.962;2023-02-21T06:34:25;25.13;;;4.83;;
6306;SDS011;3186;54.062;9.962;2023-02-21T06:36:52;36.93;;;6.33;;
6306;SDS011;3186;54.062;9.962;2023-02-21T06:39:23;30.77;;;6.10;;
6306;SDS011;3186;54.062;9.962;2023-02-21T06:41:49;33.73;;;5.80;;
6306;SDS011;3186;54.062;9.962;2023-02-21T06:44:15;18.60;;;4.30;;
6306;SDS011;3186;54.062;9.962;2023-02-21T06:46:42;25.93;;;4.33;;
6306;SDS011;3186;54.062;9.962;2023-02-21T06:49:08;20.47;;;4.80;;
6306;SDS011;3186;54.062;9.962;2023-02-21T06:51:35;22.73;;;5.00;;
6306;SDS011;3186;54.062;9.962;2023-02-21T06:54:02;23.50;;;4.83;;
6306;SDS011;3186;54.062;9.962;2023-02-21T06:56:28;28.20;;;5.00;;
6306;SDS011;3186;54.062;9.962;2023-02-21T06:58:55;28.53;;;4.97;;
6306;SDS011;3186;54.062;9.962;2023-02-21T07:01:21;21.97;;;4.27;;
6306;SDS011;3186;54.062;9.962;2023-02-21T07:03:50;32.63;;;5.53;;
6306;SDS011;3186;54.062;9.962;2023-02-21T07:06:16;31.90;;;4.97;;
6306;SDS011;3186;54.062;9.962;2023-02-21T07:08:42;19.27;;;4.10;;
6306;SDS011;3186;54.062;9.962;2023-02-21T07:11:08;17.93;;;4.50;;
6306;SDS011;3186;54.062;9.962;2023-02-21T07:13:34;29.03;;;5.23;;
6306;SDS011;3186;54.062;9.962;2023-02-21T07:16:00;27.40;;;5.10;;
6306;SDS011;3186;54.062;9.962;2023-02-21T07:18:26;31.40;;;5.03;;
6306;SDS011;3186;54.062;9.962;2023-02-21T07:20:52;26.03;;;4.83;;
6306;SDS011;3186;54.062;9.962;2023-02-21T07:23:18;29.37;;;4.70;;
6306;SDS011;3186;54.062;9.962;2023-02-21T07:25:43;32.97;;;5.40;;
6306;SDS011;3186;54.062;9.962;2023-02-21T07:28:10;23.03;;;4.80;;
6306;SDS011;3186;54.062;9.962;2023-02-21T07:30:36;27.57;;;5.10;;
6306;SDS011;3186;54.062;9.962;2023-02-21T07:33:02;29.27;;;5.00;;
6306;SDS011;3186;54.062;9.962;2023-02-21T07:35:28;30.10;;;5.83;;
6306;SDS011;3186;54.062;9.962;2023-02-21T07:37:53;28.70;;;5.73;;
6306;SDS011;3186;54.062;9.962;2023-02-21T07:40:19;33.50;;;5.17;;
6306;SDS011;3186;54.062;9.962;2023-02-21T07:42:45;29.17;;;5.63;;
6306;SDS011;3186;54.062;9.962;2023-02-21T07:45:15;20.63;;;4.40;;
6306;SDS011;3186;54.062;9.962;2023-02-21T07:47:41;33.67;;;5.60;;
6306;SDS011;3186;54.062;9.962;2023-02-21T07:50:09;26.30;;;5.00;;
6306;SDS011;3186;54.062;9.962;2023-02-21T07:52:36;25.23;;;4.83;;
6306;SDS011;3186;54.062;9.962;2023-02-21T07:55:02;32.23;;;5.00;;
6306;SDS011;3186;54.062;9.962;2023-02-21T07:57:28;26.73;;;4.73;;
6306;SDS011;3186;54.062;9.962;2023-02-21T07:59:53;21.10;;;4.43;;
6306;SDS011;3186;54.062;9.962;2023-02-21T08:02:19;19.87;;;5.03;;
6306;SDS011;3186;54.062;9.962;2023-02-21T08:04:48;28.00;;;4.83;;
6306;SDS011;3186;54.062;9.962;2023-02-21T08:07:15;24.53;;;3.80;;
6306;SDS011;3186;54.062;9.962;2023-02-21T08:09:41;26.60;;;5.17;;
6306;SDS011;3186;54.062;9.962;2023-02-21T08:12:07;23.20;;;5.20;;
6306;SDS011;3186;54.062;9.962;2023-02-21T08:14:33;26.90;;;5.17;;
6306;SDS011;3186;54.062;9.962;2023-02-21T08:16:58;26.33;;;5.03;;
6306;SDS011;3186;54.062;9.962;2023-02-21T08:19:24;25.83;;;5.53;;
6306;SDS011;3186;54.062;9.962;2023-02-21T08:21:50;29.40;;;6.00;;
6306;SDS011;3186;54.062;9.962;2023-02-21T08:24:16;29.93;;;4.93;;
6306;SDS011;3186;54.062;9.962;2023-02-21T08:26:43;26.60;;;4.73;;
6306;SDS011;3186;54.062;9.962;2023-02-21T08:29:13;30.27;;;5.00;;
6306;SDS011;3186;54.062;9.962;2023-02-21T08:31:40;31.87;;;4.57;;
6306;SDS011;3186;54.062;9.962;2023-02-21T08:34:06;29.77;;;6.20;;
6306;SDS011;3186;54.062;9.962;2023-02-21T08:36:33;27.43;;;5.27;;
6306;SDS011;3186;54.062;9.962;2023-02-21T08:39:00;25.13;;;5.03;;
6306;SDS011;3186;54.062;9.962;2023-02-21T08:42:00;25.20;;;5.83;;
6306;SDS011;3186;54.062;9.962;2023-02-21T08:44:19;27.70;;;5.70;;
6306;SDS011;3186;54.062;9.962;2023-02-21T08:46:48;28.40;;;5.07;;
6306;SDS011;3186;54.062;9.962;2023-02-21T08:49:14;29.90;;;5.27;;
6306;SDS011;3186;54.062;9.962;2023-02-21T08:51:40;25.10;;;4.63;;
6306;SDS011;3186;54.062;9.962;2023-02-21T08:54:07;29.47;;;5.00;;
6306;SDS011;3186;54.062;9.962;2023-02-21T08:56:32;30.30;;;5.17;;
6306;SDS011;3186;54.062;9.962;2023-02-21T08:58:59;28.37;;;5.03;;
6306;SDS011;3186;54.062;9.962;2023-02-21T09:01:29;26.37;;;4.73;;
6306;SDS011;3186;54.062;9.962;2023-02-21T09:04:00;30.53;;;5.43;;
6306;SDS011;3186;54.062;9.962;2023-02-21T09:06:26;30.70;;;5.13;;
6306;SDS011;3186;54.062;9.962;2023-02-21T09:08:52;28.87;;;5.73;;
6306;SDS011;3186;54.062;9.962;2023-02-21T09:11:18;23.67;;;5.67;;
6306;SDS011;3186;54.062;9.962;2023-02-21T09:13:44;28.33;;;4.87;;
6306;SDS011;3186;54.062;9.962;2023-02-21T09:16:10;34.50;;;6.33;;
6306;SDS011;3186;54.062;9.962;2023-02-21T09:18:35;20.77;;;4.53;;
6306;SDS011;3186;54.062;9.962;2023-02-21T09:21:01;24.87;;;4.83;;
6306;SDS011;3186;54.062;9.962;2023-02-21T09:23:28;29.43;;;4.80;;
6306;SDS011;3186;54.062;9.962;2023-02-21T09:25:55;38.90;;;5.73;;
6306;SDS011;3186;54.062;9.962;2023-02-21T09:28:21;32.87;;;5.20;;
6306;SDS011;3186;54.062;9.962;2023-02-21T09:30:47;29.87;;;4.90;;
6306;SDS011;3186;54.062;9.962;2023-02-21T09:33:14;23.00;;;4.83;;
6306;SDS011;3186;54.062;9.962;2023-02-21T09:35:40;25.97;;;5.47;;
6306;SDS011;3186;54.062;9.962;2023-02-21T09:38:06;29.20;;;4.90;;
6306;SDS011;3186;54.062;9.962;2023-02-21T09:40:35;24.57;;;5.27;;
6306;SDS011;3186;54.062;9.962;2023-02-21T09:43:10;34.13;;;4.90;;
6306;SDS011;3186;54.062;9.962;2023-02-21T09:45:43;29.07;;;5.67;;
6306;SDS011;3186;54.062;9.962;2023-02-21T09:48:13;28.53;;;5.43;;
6306;SDS011;3186;54.062;9.962;2023-02-21T09:50:46;26.23;;;5.53;;
6306;SDS011;3186;54.062;9.962;2023-02-21T09:53:25;23.30;;;5.03;;
6306;SDS011;3186;54.062;9.962;2023-02-21T09:55:53;33.27;;;5.70;;
6306;SDS011;3186;54.062;9.962;2023-02-21T09:58:25;32.13;;;6.40;;
6306;SDS011;3186;54.062;9.962;2023-02-21T10:00:51;27.40;;;5.23;;
6306;SDS011;3186;54.062;9.962;2023-02-21T10:11:32;37.77;;;5.77;;
6306;SDS011;3186;54.062;9.962;2023-02-21T10:16:59;29.63;;;5.83;;
6306;SDS011;3186;54.062;9.962;2023-02-21T10:19:39;23.80;;;5.43;;
6306;SDS011;3186;54.062;9.962;2023-02-21T10:22:12;24.07;;;5.27;;
6306;SDS011;3186;54.062;9.962;2023-02-21T10:24:46;21.57;;;4.77;;
6306;SDS011;3186;54.062;9.962;2023-02-21T10:27:16;30.37;;;5.07;;
6306;SDS011;3186;54.062;9.962;2023-02-21T10:32:12;32.57;;;5.83;;
6306;SDS011;3186;54.062;9.962;2023-02-21T10:34:38;24.63;;;5.77;;
6306;SDS011;3186;54.062;9.962;2023-02-21T10:37:54;28.27;;;6.40;;
6306;SDS011;3186;54.062;9.962;2023-02-21T10:40:21;23.20;;;4.50;;
6306;SDS011;3186;54.062;9.962;2023-02-21T10:45:49;34.30;;;5.60;;
6306;SDS011;3186;54.062;9.962;2023-02-21T10:48:18;29.40;;;4.53;;
6306;SDS011;3186;54.062;9.962;2023-02-21T10:50:49;25.57;;;5.47;;
6306;SDS011;3186;54.062;9.962;2023-02-21T10:53:33;27.47;;;4.87;;
6306;SDS011;3186;54.062;9.962;2023-02-21T11:01:46;29.63;;;5.50;;
6306;SDS011;3186;54.062;9.962;2023-02-21T11:06:46;17.57;;;4.67;;
6306;SDS011;3186;54.062;9.962;2023-02-21T11:14:43;25.17;;;4.43;;
6306;SDS011;3186;54.062;9.962;2023-02-21T11:27:36;25.53;;;5.63;;
6306;SDS011;3186;54.062;9.962;2023-02-21T11:30:10;22.03;;;5.03;;
6306;SDS011;3186;54.062;9.962;2023-02-21T11:32:41;20.53;;;4.27;;
6306;SDS011;3186;54.062;9.962;2023-02-21T11:35:21;27.30;;;5.20;;
6306;SDS011;3186;54.062;9.962;2023-02-21T11:37:51;26.37;;;4.97;;
6306;SDS011;3186;54.062;9.962;2023-02-21T11:43:30;21.77;;;4.30;;
6306;SDS011;3186;54.062;9.962;2023-02-21T11:46:16;18.00;;;4.20;;
6306;SDS011;3186;54.062;9.962;2023-02-21T11:54:10;23.43;;;4.20;;
6306;SDS011;3186;54.062;9.962;2023-02-21T12:02:25;24.73;;;4.83;;
6306;SDS011;3186;54.062;9.962;2023-02-21T12:05:55;20.77;;;4.27;;
6306;SDS011;3186;54.062;9.962;2023-02-21T12:08:20;20.50;;;4.27;;
6306;SDS011;3186;54.062;9.962;2023-02-21T12:11:04;21.77;;;4.90;;
6306;SDS011;3186;54.062;9.962;2023-02-21T12:19:54;25.73;;;4.57;;
6306;SDS011;3186;54.062;9.962;2023-02-21T12:49:59;21.47;;;3.63;;
6306;SDS011;3186;54.062;9.962;2023-02-21T13:06:41;24.53;;;4.70;;
6306;SDS011;3186;54.062;9.962;2023-02-21T13:09:08;20.10;;;4.37;;
6306;SDS011;3186;54.062;9.962;2023-02-21T13:12:03;19.43;;;4.00;;
6306;SDS011;3186;54.062;9.962;2023-02-21T13:14:50;18.13;;;4.47;;
6306;SDS011;3186;54.062;9.962;2023-02-21T13:17:21;23.50;;;4.77;;
6306;SDS011;3186;54.062;9.962;2023-02-21T13:29:09;24.23;;;5.07;;
6306;SDS011;3186;54.062;9.962;2023-02-21T13:34:25;18.43;;;3.43;;
6306;SDS011;3186;54.062;9.962;2023-02-21T13:36:53;25.83;;;4.60;;
6306;SDS011;3186;54.062;9.962;2023-02-21T13:39:31;22.40;;;4.57;;
6306;SDS011;3186;54.062;9.962;2023-02-21T13:42:07;18.60;;;4.17;;
6306;SDS011;3186;54.062;9.962;2023-02-21T13:44:37;21.80;;;4.27;;
6306;SDS011;3186;54.062;9.962;2023-02-21T13:49:41;24.37;;;4.33;;
6306;SDS011;3186;54.062;9.962;2023-02-21T13:57:45;16.50;;;3.83;;
6306;SDS011;3186;54.062;9.962;2023-02-21T14:05:26;27.53;;;4.50;;
6306;SDS011;3186;54.062;9.962;2023-02-21T14:11:33;23.80;;;4.47;;
6306;SDS011;3186;54.062;9.962;2023-02-21T14:18:57;18.73;;;4.23;;
6306;SDS011;3186;54.062;9.962;2023-02-21T14:24:19;23.40;;;5.43;;
6306;SDS011;3186;54.062;9.962;2023-02-21T14:51:08;26.07;;;5.70;;
6306;SDS011;3186;54.062;9.962;2023-02-21T15:12:53;21.13;;;4.93;;
6306;SDS011;3186;54.062;9.962;2023-02-21T15:15:23;17.87;;;4.13;;
6306;SDS011;3186;54.062;9.962;2023-02-21T15:20:31;20.17;;;5.03;;
6306;SDS011;3186;54.062;9.962;2023-02-21T15:25:38;21.87;;;4.80;;
6306;SDS011;3186;54.062;9.962;2023-02-21T15:28:06;21.23;;;4.53;;
6306;SDS011;3186;54.062;9.962;2023-02-21T15:30:53;24.70;;;4.40;;
6306;SDS011;3186;54.062;9.962;2023-02-21T15:33:38;24.40;;;4.53;;
6306;SDS011;3186;54.062;9.962;2023-02-21T15:36:27;15.93;;;4.03;;
6306;SDS011;3186;54.062;9.962;2023-02-21T15:41:31;21.63;;;4.30;;
6306;SDS011;3186;54.062;9.962;2023-02-21T15:46:51;17.13;;;4.00;;
6306;SDS011;3186;54.062;9.962;2023-02-21T15:49:25;18.30;;;3.97;;
6306;SDS011;3186;54.062;9.962;2023-02-21T15:51:54;15.70;;;3.73;;
6306;SDS011;3186;54.062;9.962;2023-02-21T15:57:01;15.03;;;3.87;;
6306;SDS011;3186;54.062;9.962;2023-02-21T15:59:30;21.50;;;4.67;;
6306;SDS011;3186;54.062;9.962;2023-02-21T16:04:34;13.80;;;3.77;;
6306;SDS011;3186;54.062;9.962;2023-02-21T16:07:06;16.33;;;3.90;;
6306;SDS011;3186;54.062;9.962;2023-02-21T16:09:38;19.87;;;4.70;;
6306;SDS011;3186;54.062;9.962;2023-02-21T16:19:37;12.73;;;4.13;;
6306;SDS011;3186;54.062;9.962;2023-02-21T16:22:10;19.27;;;4.53;;
6306;SDS011;3186;54.062;9.962;2023-02-21T16:27:35;19.03;;;4.10;;
6306;SDS011;3186;54.062;9.962;2023-02-21T16:30:05;16.63;;;4.30;;
6306;SDS011;3186;54.062;9.962;2023-02-21T16:32:35;17.40;;;3.57;;
6306;SDS011;3186;54.062;9.962;2023-02-21T16:35:03;19.40;;;4.30;;
6306;SDS011;3186;54.062;9.962;2023-02-21T16:37:30;18.60;;;3.93;;
6306;SDS011;3186;54.062;9.962;2023-02-21T16:39:56;13.80;;;4.13;;
6306;SDS011;3186;54.062;9.962;2023-02-21T16:42:22;18.27;;;4.60;;
6306;SDS011;3186;54.062;9.962;2023-02-21T16:44:49;19.10;;;4.37;;
6306;SDS011;3186;54.062;9.962;2023-02-21T16:47:15;14.57;;;3.93;;
6306;SDS011;3186;54.062;9.962;2023-02-21T16:49:42;19.63;;;4.53;;
6306;SDS011;3186;54.062;9.962;2023-02-21T16:52:15;14.97;;;4.10;;
6306;SDS011;3186;54.062;9.962;2023-02-21T16:54:41;18.43;;;4.33;;
6306;SDS011;3186;54.062;9.962;2023-02-21T16:57:08;18.93;;;4.47;;
6306;SDS011;3186;54.062;9.962;2023-02-21T16:59:35;17.33;;;4.47;;
6306;SDS011;3186;54.062;9.962;2023-02-21T17:02:01;20.93;;;5.30;;
6306;SDS011;3186;54.062;9.962;2023-02-21T17:04:28;18.97;;;4.50;;
6306;SDS011;3186;54.062;9.962;2023-02-21T17:06:57;13.80;;;4.33;;
6306;SDS011;3186;54.062;9.962;2023-02-21T17:09:28;21.73;;;4.90;;
6306;SDS011;3186;54.062;9.962;2023-02-21T17:11:57;14.30;;;4.60;;
6306;SDS011;3186;54.062;9.962;2023-02-21T17:14:24;21.33;;;5.63;;
6306;SDS011;3186;54.062;9.962;2023-02-21T17:16:50;16.50;;;5.37;;
6306;SDS011;3186;54.062;9.962;2023-02-21T17:19:17;15.77;;;5.03;;
6306;SDS011;3186;54.062;9.962;2023-02-21T17:21:45;13.93;;;4.70;;
6306;SDS011;3186;54.062;9.962;2023-02-21T17:24:12;17.83;;;5.20;;
6306;SDS011;3186;54.062;9.962;2023-02-21T17:26:38;23.50;;;6.00;;
6306;SDS011;3186;54.062;9.962;2023-02-21T17:29:05;19.73;;;5.73;;
6306;SDS011;3186;54.062;9.962;2023-02-21T17:31:31;22.37;;;6.43;;
6306;SDS011;3186;54.062;9.962;2023-02-21T17:33:58;22.77;;;7.43;;
6306;SDS011;3186;54.062;9.962;2023-02-21T17:36:24;23.77;;;6.83;;
6306;SDS011;3186;54.062;9.962;2023-02-21T17:38:51;16.37;;;6.80;;
6306;SDS011;3186;54.062;9.962;2023-02-21T17:41:18;25.53;;;6.83;;
6306;SDS011;3186;54.062;9.962;2023-02-21T17:43:44;21.63;;;7.43;;
6306;SDS011;3186;54.062;9.962;2023-02-21T17:46:11;20.23;;;6.70;;
6306;SDS011;3186;54.062;9.962;2023-02-21T17:48:41;21.20;;;7.30;;
6306;SDS011;3186;54.062;9.962;2023-02-21T17:51:08;23.27;;;7.10;;
6306;SDS011;3186;54.062;9.962;2023-02-21T17:53:40;20.87;;;6.67;;
6306;SDS011;3186;54.062;9.962;2023-02-21T17:56:06;20.43;;;6.47;;
6306;SDS011;3186;54.062;9.962;2023-02-21T17:58:32;16.07;;;6.67;;
6306;SDS011;3186;54.062;9.962;2023-02-21T18:00:58;22.83;;;6.97;;
6306;SDS011;3186;54.062;9.962;2023-02-21T18:03:24;13.53;;;6.23;;
6306;SDS011;3186;54.062;9.962;2023-02-21T18:05:50;20.13;;;5.83;;
6306;SDS011;3186;54.062;9.962;2023-02-21T18:08:17;21.83;;;5.27;;
6306;SDS011;3186;54.062;9.962;2023-02-21T18:10:43;18.90;;;6.40;;
6306;SDS011;3186;54.062;9.962;2023-02-21T18:13:14;19.67;;;5.80;;
6306;SDS011;3186;54.062;9.962;2023-02-21T18:15:45;16.90;;;6.17;;
6306;SDS011;3186;54.062;9.962;2023-02-21T18:18:11;23.03;;;6.60;;
6306;SDS011;3186;54.062;9.962;2023-02-21T18:20:36;19.37;;;6.47;;
6306;SDS011;3186;54.062;9.962;2023-02-21T18:23:03;18.23;;;5.90;;
6306;SDS011;3186;54.062;9.962;2023-02-21T18:25:31;21.83;;;6.43;;
6306;SDS011;3186;54.062;9.962;2023-02-21T18:27:58;18.30;;;6.23;;
6306;SDS011;3186;54.062;9.962;2023-02-21T18:30:24;21.67;;;6.67;;
6306;SDS011;3186;54.062;9.962;2023-02-21T18:32:50;18.73;;;7.13;;
6306;SDS011;3186;54.062;9.962;2023-02-21T18:35:17;20.33;;;6.73;;
6306;SDS011;3186;54.062;9.962;2023-02-21T18:37:43;19.60;;;7.17;;
6306;SDS011;3186;54.062;9.962;2023-02-21T18:40:16;19.67;;;6.47;;
6306;SDS011;3186;54.062;9.962;2023-02-21T18:42:43;20.53;;;6.60;;
6306;SDS011;3186;54.062;9.962;2023-02-21T18:45:09;20.00;;;7.10;;
6306;SDS011;3186;54.062;9.962;2023-02-21T18:47:36;21.50;;;6.60;;
6306;SDS011;3186;54.062;9.962;2023-02-21T18:50:03;20.23;;;7.20;;
6306;SDS011;3186;54.062;9.962;2023-02-21T18:52:29;22.77;;;6.80;;
6306;SDS011;3186;54.062;9.962;2023-02-21T18:54:55;16.70;;;6.40;;
6306;SDS011;3186;54.062;9.962;2023-02-21T18:57:27;21.17;;;6.70;;
6306;SDS011;3186;54.062;9.962;2023-02-21T18:59:54;20.07;;;7.27;;
6306;SDS011;3186;54.062;9.962;2023-02-21T19:02:20;15.07;;;6.33;;
6306;SDS011;3186;54.062;9.962;2023-02-21T19:04:46;20.53;;;7.00;;
6306;SDS011;3186;54.062;9.962;2023-02-21T19:07:12;19.10;;;7.07;;
6306;SDS011;3186;54.062;9.962;2023-02-21T19:09:40;22.97;;;10.30;;
6306;SDS011;3186;54.062;9.962;2023-02-21T19:12:09;19.43;;;7.70;;
6306;SDS011;3186;54.062;9.962;2023-02-21T19:14:35;19.10;;;8.07;;
6306;SDS011;3186;54.062;9.962;2023-02-21T19:17:02;26.80;;;8.77;;
6306;SDS011;3186;54.062;9.962;2023-02-21T19:19:28;21.67;;;9.50;;
6306;SDS011;3186;54.062;9.962;2023-02-21T19:21:57;20.73;;;10.23;;
6306;SDS011;3186;54.062;9.962;2023-02-21T19:24:23;24.33;;;11.67;;
6306;SDS011;3186;54.062;9.962;2023-02-21T19:26:49;26.43;;;12.73;;
6306;SDS011;3186;54.062;9.962;2023-02-21T19:29:15;29.23;;;14.10;;
6306;SDS011;3186;54.062;9.962;2023-02-21T19:31:41;28.30;;;14.97;;
6306;SDS011;3186;54.062;9.962;2023-02-21T19:34:07;29.17;;;14.30;;
6306;SDS011;3186;54.062;9.962;2023-02-21T19:36:34;28.37;;;13.67;;
6306;SDS011;3186;54.062;9.962;2023-02-21T19:39:04;25.87;;;13.57;;